createdAt,value
2018-02-24T00:02:24.647Z,-7.54
2018-02-24T00:04:52.130Z,-7.59
2018-02-24T00:07:19.630Z,-7.65
2018-02-24T00:09:47.206Z,-7.63
2018-02-24T00:12:14.713Z,-7.69
2018-02-24T00:14:42.233Z,-7.70
2018-02-24T00:17:09.721Z,-7.63
2018-02-24T00:19:37.201Z,-7.66
2018-02-24T00:22:04.705Z,-7.58
2018-02-24T00:24:32.186Z,-7.62
2018-02-24T00:26:59.707Z,-7.60
2018-02-24T00:29:27.173Z,-7.64
2018-02-24T00:31:54.728Z,-7.64
2018-02-24T00:34:22.329Z,-7.67
2018-02-24T00:36:49.907Z,-7.70
2018-02-24T00:39:17.404Z,-7.63
2018-02-24T00:41:44.886Z,-7.60
2018-02-24T00:44:12.395Z,-7.61
2018-02-24T00:46:39.943Z,-7.62
2018-02-24T00:49:07.437Z,-7.61
2018-02-24T00:51:35.002Z,-7.61
2018-02-24T00:54:02.501Z,-7.62
2018-02-24T00:56:29.965Z,-7.62
2018-02-24T00:58:57.486Z,-7.58
2018-02-24T01:01:24.975Z,-7.43
2018-02-24T01:03:52.465Z,-7.44
2018-02-24T01:06:19.993Z,-7.50
2018-02-24T01:08:47.524Z,-7.49
2018-02-24T01:11:15.020Z,-7.48
2018-02-24T01:13:42.567Z,-7.53
2018-02-24T01:16:10.058Z,-7.63
2018-02-24T01:18:37.608Z,-7.69
2018-02-24T01:21:05.098Z,-7.68
2018-02-24T01:23:32.609Z,-7.75
2018-02-24T01:26:00.102Z,-7.79
2018-02-24T01:28:27.598Z,-7.88
2018-02-24T01:30:55.175Z,-7.85
2018-02-24T01:33:22.666Z,-7.86
2018-02-24T01:35:50.176Z,-7.91
2018-02-24T01:38:17.675Z,-8.01
2018-02-24T01:40:45.145Z,-8.08
2018-02-24T01:43:12.637Z,-8.11
2018-02-24T01:45:40.212Z,-8.05
2018-02-24T01:48:07.792Z,-8.03
2018-02-24T01:50:43.234Z,-7.97
2018-02-24T01:53:10.762Z,-7.98
2018-02-24T01:55:38.270Z,-8.07
2018-02-24T01:58:05.829Z,-8.13
2018-02-24T02:00:33.307Z,-8.18
2018-02-24T02:03:00.892Z,-8.23
2018-02-24T02:05:28.384Z,-8.25
2018-02-24T02:07:55.925Z,-8.33
2018-02-24T02:10:23.401Z,-8.31
2018-02-24T02:12:51.028Z,-8.29
2018-02-24T02:15:18.548Z,-8.29
2018-02-24T02:17:46.026Z,-8.24
2018-02-24T02:20:13.605Z,-8.15
2018-02-24T02:22:41.283Z,-8.11
2018-02-24T02:25:08.778Z,-8.03
2018-02-24T02:27:36.262Z,-7.99
2018-02-24T02:30:03.754Z,-7.96
2018-02-24T02:32:31.259Z,-7.93
2018-02-24T02:34:58.757Z,-7.91
2018-02-24T02:37:26.295Z,-7.87
2018-02-24T02:39:53.795Z,-7.89
2018-02-24T02:42:21.363Z,-7.91
2018-02-24T02:44:48.859Z,-7.88
2018-02-24T02:47:16.391Z,-7.86
2018-02-24T02:49:43.872Z,-7.94
2018-02-24T02:52:11.355Z,-7.86
2018-02-24T02:54:38.843Z,-7.83
2018-02-24T02:57:06.364Z,-7.93
2018-02-24T02:59:33.834Z,-7.94
2018-02-24T03:02:01.350Z,-7.90
2018-02-24T03:04:28.884Z,-7.91
2018-02-24T03:06:56.392Z,-8.02
2018-02-24T03:09:23.885Z,-8.05
2018-02-24T03:11:51.511Z,-7.90
2018-02-24T03:14:18.992Z,-8.01
2018-02-24T03:16:47.006Z,-8.11
2018-02-24T03:19:14.495Z,-7.97
2018-02-24T03:21:41.990Z,-8.09
2018-02-24T03:24:09.765Z,-8.14
2018-02-24T03:26:37.258Z,-8.14
2018-02-24T03:29:04.741Z,-8.12
2018-02-24T03:31:32.341Z,-8.18
2018-02-24T03:33:59.865Z,-8.18
2018-02-24T03:36:27.329Z,-8.27
2018-02-24T03:38:55.007Z,-8.33
2018-02-24T03:41:22.481Z,-8.36
2018-02-24T03:43:50.052Z,-8.42
2018-02-24T03:46:21.064Z,-8.48
2018-02-24T03:48:48.559Z,-8.51
2018-02-24T03:51:16.043Z,-8.52
2018-02-24T03:53:43.633Z,-8.55
2018-02-24T03:56:11.138Z,-8.57
2018-02-24T03:58:38.646Z,-8.53
2018-02-24T04:01:06.117Z,-8.39
2018-02-24T04:03:33.609Z,-8.46
2018-02-24T04:06:01.104Z,-8.45
2018-02-24T04:08:28.661Z,-8.48
2018-02-24T04:10:56.418Z,-8.39
2018-02-24T04:13:24.013Z,-8.34
2018-02-24T04:15:51.505Z,-8.35
2018-02-24T04:18:19.023Z,-8.42
2018-02-24T04:20:46.539Z,-8.43
2018-02-24T04:23:14.092Z,-8.45
2018-02-24T04:25:41.720Z,-8.52
2018-02-24T04:28:09.270Z,-8.59
2018-02-24T04:30:36.820Z,-8.64
2018-02-24T04:33:04.306Z,-8.69
2018-02-24T04:35:31.826Z,-8.68
2018-02-24T04:37:59.295Z,-8.74
2018-02-24T04:40:26.780Z,-8.74
2018-02-24T04:42:54.282Z,-8.81
2018-02-24T04:45:21.857Z,-8.83
2018-02-24T04:47:49.419Z,-8.78
2018-02-24T04:50:16.908Z,-8.74
2018-02-24T04:52:44.487Z,-8.76
2018-02-24T04:55:12.033Z,-8.79
2018-02-24T04:57:39.617Z,-8.79
2018-02-24T05:00:07.149Z,-8.84
2018-02-24T05:02:34.660Z,-8.78
2018-02-24T05:05:02.218Z,-8.70
2018-02-24T05:07:29.705Z,-8.71
2018-02-24T05:09:57.262Z,-8.65
2018-02-24T05:12:24.753Z,-8.80
2018-02-24T05:14:52.323Z,-8.79
2018-02-24T05:17:19.879Z,-8.86
2018-02-24T05:19:47.364Z,-8.89
2018-02-24T05:22:14.933Z,-8.94
2018-02-24T05:24:42.555Z,-8.99
2018-02-24T05:27:10.035Z,-9.02
2018-02-24T05:29:37.505Z,-9.05
2018-02-24T05:32:05.001Z,-9.08
2018-02-24T05:34:32.488Z,-9.11
2018-02-24T05:36:59.972Z,-9.16
2018-02-24T05:39:27.523Z,-9.15
2018-02-24T05:41:54.988Z,-9.15
2018-02-24T05:44:22.572Z,-9.23
2018-02-24T05:46:50.033Z,-9.29
2018-02-24T05:49:17.624Z,-9.28
2018-02-24T05:51:45.103Z,-9.26
2018-02-24T05:54:12.606Z,-9.31
2018-02-24T05:56:40.169Z,-9.24
2018-02-24T05:59:07.678Z,-9.20
2018-02-24T06:01:35.156Z,-9.11
2018-02-24T06:04:02.640Z,-8.97
2018-02-24T06:06:30.329Z,-8.82
2018-02-24T06:08:57.792Z,-8.68
2018-02-24T06:11:25.361Z,-8.48
2018-02-24T06:13:52.968Z,-8.36
2018-02-24T06:16:20.472Z,-8.24
2018-02-24T06:18:47.988Z,-8.11
2018-02-24T06:21:15.550Z,-7.91
2018-02-24T06:23:43.050Z,-7.75
2018-02-24T06:26:10.547Z,-7.63
2018-02-24T06:28:38.043Z,-7.52
2018-02-24T06:31:05.750Z,-7.42
2018-02-24T06:33:33.264Z,-7.30
2018-02-24T06:36:00.800Z,-7.24
2018-02-24T06:38:28.275Z,-7.18
2018-02-24T06:40:55.743Z,-7.07
2018-02-24T06:43:23.332Z,-7.11
2018-02-24T06:45:50.849Z,-6.99
2018-02-24T06:48:18.357Z,-6.95
2018-02-24T06:50:45.836Z,-6.88
2018-02-24T06:53:13.411Z,-6.83
2018-02-24T06:55:40.893Z,-6.66
2018-02-24T06:58:08.380Z,-6.63
2018-02-24T07:00:35.850Z,-6.55
2018-02-24T07:03:03.339Z,-6.44
2018-02-24T07:05:30.826Z,-6.56
2018-02-24T07:07:58.324Z,-6.47
2018-02-24T07:10:25.906Z,-6.59
2018-02-24T07:12:53.447Z,-6.49
2018-02-24T07:15:20.914Z,-6.37
2018-02-24T07:17:48.374Z,-6.33
2018-02-24T07:20:15.968Z,-6.27
2018-02-24T07:22:43.433Z,-6.16
2018-02-24T07:25:10.919Z,-6.06
2018-02-24T07:27:38.406Z,-5.88
2018-02-24T07:30:05.970Z,-5.81
2018-02-24T07:32:33.474Z,-5.69
2018-02-24T07:35:00.950Z,-5.55
2018-02-24T07:37:28.431Z,-5.56
2018-02-24T07:39:55.894Z,-5.48
2018-02-24T07:42:23.374Z,-5.55
2018-02-24T07:44:52.453Z,-5.50
2018-02-24T07:47:19.940Z,-5.41
2018-02-24T07:49:47.417Z,-5.27
2018-02-24T07:52:14.923Z,-5.05
2018-02-24T07:54:42.396Z,-5.03
2018-02-24T07:57:09.877Z,-4.74
2018-02-24T07:59:37.352Z,-4.45
2018-02-24T08:02:04.843Z,-4.07
2018-02-24T08:04:32.382Z,-3.89
2018-02-24T08:06:59.852Z,-3.65
2018-02-24T08:09:27.414Z,-2.64
2018-02-24T08:11:54.953Z,-1.71
2018-02-24T08:14:22.446Z,-0.83
2018-02-24T08:16:49.934Z,-0.16
2018-02-24T08:19:17.516Z,-0.22
2018-02-24T08:21:45.102Z,-0.06
2018-02-24T08:24:12.686Z,0.42
2018-02-24T08:26:40.241Z,1.16
2018-02-24T08:29:07.702Z,1.91
2018-02-24T08:31:35.249Z,3.38
2018-02-24T08:34:02.888Z,3.54
2018-02-24T08:36:30.358Z,4.04
2018-02-24T08:38:57.914Z,4.53
2018-02-24T08:41:25.409Z,3.79
2018-02-24T08:43:52.936Z,4.18
2018-02-24T08:46:20.639Z,4.16
2018-02-24T08:48:48.147Z,4.35
2018-02-24T08:51:15.663Z,4.84
2018-02-24T08:53:43.227Z,5.33
2018-02-24T08:56:10.702Z,5.57
2018-02-24T08:58:38.186Z,5.73
2018-02-24T09:01:05.646Z,6.30
2018-02-24T09:03:33.154Z,5.69
2018-02-24T09:06:00.664Z,6.72
2018-02-24T09:08:28.173Z,6.66
2018-02-24T09:10:55.667Z,6.55
2018-02-24T09:13:23.145Z,6.47
2018-02-24T09:15:51.068Z,7.45
2018-02-24T09:18:18.572Z,6.83
2018-02-24T09:20:46.091Z,6.97
2018-02-24T09:23:13.545Z,7.43
2018-02-24T09:25:41.028Z,7.61
2018-02-24T09:28:08.588Z,6.83
2018-02-24T09:30:36.054Z,6.78
2018-02-24T09:33:03.517Z,6.36
2018-02-24T09:35:31.059Z,5.30
2018-02-24T09:37:58.573Z,4.74
2018-02-24T09:40:26.061Z,4.71
2018-02-24T09:42:53.516Z,4.45
2018-02-24T09:45:21.022Z,4.88
2018-02-24T09:47:48.521Z,4.04
2018-02-24T09:50:15.992Z,4.39
2018-02-24T09:52:43.472Z,3.80
2018-02-24T09:55:10.961Z,3.26
2018-02-24T09:57:38.483Z,2.59
2018-02-24T10:00:06.006Z,1.68
2018-02-24T10:02:33.490Z,2.05
2018-02-24T10:05:00.947Z,2.91
2018-02-24T10:07:28.400Z,3.48
2018-02-24T10:09:55.876Z,3.67
2018-02-24T10:12:23.361Z,3.45
2018-02-24T10:14:50.934Z,4.00
2018-02-24T10:17:18.388Z,4.61
2018-02-24T10:19:45.858Z,4.28
2018-02-24T10:22:13.331Z,4.66
2018-02-24T10:24:40.793Z,4.62
2018-02-24T10:27:08.285Z,4.26
2018-02-24T10:29:35.772Z,4.12
2018-02-24T10:32:03.271Z,3.64
2018-02-24T10:34:30.788Z,4.09
2018-02-24T10:36:58.257Z,4.24
2018-02-24T10:39:25.728Z,4.94
2018-02-24T10:41:53.207Z,5.83
2018-02-24T10:44:20.820Z,5.67
2018-02-24T10:46:48.356Z,6.17
2018-02-24T10:49:15.816Z,6.36
2018-02-24T10:51:43.316Z,6.65
2018-02-24T10:54:10.890Z,6.39
2018-02-24T10:56:38.349Z,5.38
2018-02-24T10:59:05.820Z,4.23
2018-02-24T11:01:33.272Z,4.54
2018-02-24T11:04:00.810Z,4.11
2018-02-24T11:06:28.279Z,4.20
2018-02-24T11:08:55.805Z,4.48
2018-02-24T11:11:23.285Z,5.57
2018-02-24T11:13:50.784Z,5.19
2018-02-24T11:16:18.334Z,4.93
2018-02-24T11:18:45.895Z,4.80
2018-02-24T11:21:13.372Z,4.80
2018-02-24T11:23:41.156Z,5.60
2018-02-24T11:26:08.724Z,6.89
2018-02-24T11:28:36.229Z,6.55
2018-02-24T11:31:03.698Z,6.30
2018-02-24T11:33:31.158Z,6.95
2018-02-24T11:35:58.700Z,7.22
2018-02-24T11:38:26.155Z,7.81
2018-02-24T11:40:53.661Z,7.92
2018-02-24T11:43:21.169Z,7.18
2018-02-24T11:45:48.625Z,6.39
2018-02-24T11:48:16.166Z,6.48
2018-02-24T11:50:43.648Z,6.77
2018-02-24T11:53:11.110Z,6.33
2018-02-24T11:55:38.636Z,6.06
2018-02-24T11:58:06.069Z,6.41
2018-02-24T12:00:33.527Z,7.45
2018-02-24T12:03:00.987Z,7.33
2018-02-24T12:05:28.453Z,7.01
2018-02-24T12:07:56.025Z,7.17
2018-02-24T12:10:23.484Z,7.30
2018-02-24T12:12:50.941Z,7.24
2018-02-24T12:15:18.420Z,6.70
2018-02-24T12:17:45.918Z,6.82
2018-02-24T12:20:13.521Z,6.62
2018-02-24T12:22:40.969Z,6.16
2018-02-24T12:25:08.478Z,6.41
2018-02-24T12:27:36.059Z,6.25
2018-02-24T12:30:03.548Z,5.94
2018-02-24T12:32:31.037Z,6.07
2018-02-24T12:34:58.499Z,6.59
2018-02-24T12:37:25.960Z,6.78
2018-02-24T12:39:53.414Z,6.71
2018-02-24T12:42:20.933Z,6.40
2018-02-24T12:44:48.391Z,7.22
2018-02-24T12:47:15.864Z,6.79
2018-02-24T12:49:43.312Z,6.98
2018-02-24T12:52:10.811Z,6.96
2018-02-24T12:54:38.277Z,6.27
2018-02-24T12:57:05.770Z,5.31
2018-02-24T12:59:33.262Z,4.34
2018-02-24T13:02:00.803Z,2.95
2018-02-24T13:04:28.378Z,2.37
2018-02-24T13:06:55.849Z,2.42
2018-02-24T13:09:23.338Z,2.39
2018-02-24T13:11:50.798Z,2.74
2018-02-24T13:14:18.351Z,2.89
2018-02-24T13:16:45.818Z,3.20
2018-02-24T13:19:13.282Z,3.82
2018-02-24T13:21:40.769Z,4.10
2018-02-24T13:24:08.343Z,4.15
2018-02-24T13:26:35.947Z,4.81
2018-02-24T13:29:03.401Z,5.34
2018-02-24T13:31:30.885Z,3.91
2018-02-24T13:33:58.338Z,3.50
2018-02-24T13:36:25.808Z,3.64
2018-02-24T13:38:53.286Z,3.70
2018-02-24T13:41:20.758Z,4.34
2018-02-24T13:43:48.236Z,4.66
2018-02-24T13:46:15.809Z,4.87
2018-02-24T13:48:43.261Z,3.88
2018-02-24T13:51:10.712Z,2.81
2018-02-24T13:53:38.216Z,2.73
2018-02-24T13:56:05.685Z,2.07
2018-02-24T13:58:33.162Z,1.75
2018-02-24T14:01:00.717Z,1.62
2018-02-24T14:03:28.232Z,2.04
2018-02-24T14:05:55.698Z,3.17
2018-02-24T14:08:23.169Z,2.91
2018-02-24T14:10:50.640Z,3.14
2018-02-24T14:13:18.383Z,3.54
2018-02-24T14:15:45.911Z,3.80
2018-02-24T14:18:13.490Z,3.36
2018-02-24T14:20:41.386Z,3.30
2018-02-24T14:23:08.907Z,2.77
2018-02-24T14:25:36.399Z,2.41
2018-02-24T14:28:03.907Z,2.00
2018-02-24T14:30:31.426Z,2.42
2018-02-24T14:32:58.896Z,2.63
2018-02-24T14:35:26.350Z,2.81
2018-02-24T14:37:53.843Z,2.73
2018-02-24T14:40:21.313Z,2.99
2018-02-24T14:42:48.785Z,3.35
2018-02-24T14:45:16.294Z,2.87
2018-02-24T14:47:44.019Z,2.41
2018-02-24T14:50:11.552Z,2.00
2018-02-24T14:52:39.029Z,1.26
2018-02-24T14:55:06.505Z,1.07
2018-02-24T14:57:33.976Z,0.80
2018-02-24T15:00:01.432Z,0.74
2018-02-24T15:02:28.880Z,0.45
2018-02-24T15:04:56.448Z,0.38
2018-02-24T15:07:23.909Z,0.61
2018-02-24T15:09:51.423Z,0.88
2018-02-24T15:12:18.910Z,0.93
2018-02-24T15:14:46.594Z,0.65
2018-02-24T15:17:14.056Z,0.28
2018-02-24T15:19:42.800Z,-0.01
2018-02-24T15:22:10.292Z,-0.27
2018-02-24T15:24:39.008Z,0.05
2018-02-24T15:27:06.517Z,0.47
2018-02-24T15:29:33.984Z,0.65
2018-02-24T15:32:01.451Z,0.88
2018-02-24T15:34:28.911Z,0.56
2018-02-24T15:36:56.435Z,0.46
2018-02-24T15:39:23.905Z,0.38
2018-02-24T15:41:51.558Z,0.06
2018-02-24T15:44:19.026Z,-0.22
2018-02-24T15:46:46.481Z,-0.51
2018-02-24T15:49:13.955Z,-0.69
2018-02-24T15:51:41.420Z,-0.73
2018-02-24T15:54:09.129Z,-0.93
2018-02-24T15:56:36.704Z,-1.00
2018-02-24T15:59:04.175Z,-0.93
2018-02-24T16:01:31.636Z,-0.99
2018-02-24T16:03:59.222Z,-0.96
2018-02-24T16:06:26.690Z,-1.09
2018-02-24T16:08:54.253Z,-1.23
2018-02-24T16:11:21.770Z,-1.28
2018-02-24T16:13:49.255Z,-1.28
2018-02-24T16:16:17.781Z,-1.27
2018-02-24T16:18:45.297Z,-1.26
2018-02-24T16:21:12.760Z,-1.31
2018-02-24T16:23:40.313Z,-1.26
2018-02-24T16:26:07.806Z,-1.27
2018-02-24T16:28:35.301Z,-1.32
2018-02-24T16:31:03.043Z,-1.47
2018-02-24T16:33:30.522Z,-1.46
2018-02-24T16:35:57.998Z,-1.53
2018-02-24T16:38:25.521Z,-1.53
2018-02-24T16:40:53.064Z,-1.58
2018-02-24T16:43:21.027Z,-1.68
2018-02-24T16:45:48.481Z,-1.86
2018-02-24T16:48:16.019Z,-1.95
2018-02-24T16:50:43.545Z,-2.02
2018-02-24T16:53:11.198Z,-2.10
2018-02-24T16:55:38.761Z,-2.18
2018-02-24T16:58:06.270Z,-2.31
2018-02-24T17:00:33.743Z,-2.34
2018-02-24T17:03:01.413Z,-2.40
2018-02-24T17:05:28.995Z,-2.48
2018-02-24T17:07:56.478Z,-2.53
2018-02-24T17:10:23.964Z,-2.58
2018-02-24T17:12:51.460Z,-2.58
2018-02-24T17:15:18.966Z,-2.59
2018-02-24T17:17:46.488Z,-2.63
2018-02-24T17:20:13.982Z,-2.65
2018-02-24T17:22:41.435Z,-2.67
2018-02-24T17:25:08.954Z,-2.71
2018-02-24T17:30:17.935Z,-2.79
2018-02-24T17:32:45.405Z,-2.83
2018-02-24T17:35:12.919Z,-2.88
2018-02-24T17:37:40.394Z,-2.92
2018-02-24T17:40:07.855Z,-2.92
2018-02-24T17:42:35.337Z,-2.96
2018-02-24T17:45:02.813Z,-3.04
2018-02-24T17:47:31.520Z,-3.05
2018-02-24T17:49:58.988Z,-3.06
2018-02-24T17:52:26.482Z,-3.08
2018-02-24T17:54:53.969Z,-3.16
2018-02-24T17:57:21.504Z,-3.22
2018-02-24T17:59:49.014Z,-3.25
2018-02-24T18:02:16.611Z,-3.28
2018-02-24T18:04:44.086Z,-3.29
2018-02-24T18:07:11.580Z,-3.34
2018-02-24T18:09:39.057Z,-3.34
2018-02-24T18:12:06.540Z,-3.38
2018-02-24T18:14:34.026Z,-3.41
2018-02-24T18:17:03.136Z,-3.45
2018-02-24T18:19:32.405Z,-3.46
2018-02-24T18:21:59.886Z,-3.51
2018-02-24T18:24:27.427Z,-3.50
2018-02-24T18:26:54.905Z,-3.57
2018-02-24T18:29:22.395Z,-3.58
2018-02-24T18:31:49.917Z,-3.62
2018-02-24T18:34:17.452Z,-3.63
2018-02-24T18:36:44.939Z,-3.67
2018-02-24T18:39:12.467Z,-3.70
2018-02-24T18:41:40.059Z,-3.71
2018-02-24T18:44:07.517Z,-3.78
2018-02-24T18:46:34.985Z,-3.80
2018-02-24T18:49:02.452Z,-3.84
2018-02-24T18:51:29.947Z,-3.89
2018-02-24T18:53:57.426Z,-3.92
2018-02-24T18:56:24.927Z,-3.98
2018-02-24T18:58:52.419Z,-3.99
2018-02-24T19:01:19.981Z,-4.03
2018-02-24T19:03:47.443Z,-4.07
2018-02-24T19:06:15.142Z,-4.10
2018-02-24T19:08:42.614Z,-4.09
2018-02-24T19:11:10.082Z,-4.11
2018-02-24T19:13:37.556Z,-4.17
2018-02-24T19:16:05.067Z,-4.22
2018-02-24T19:18:32.546Z,-4.25
2018-02-24T19:21:00.028Z,-4.28
2018-02-24T19:23:27.495Z,-4.26
2018-02-24T19:25:54.974Z,-4.16
2018-02-24T19:28:23.512Z,-4.24
2018-02-24T19:30:51.089Z,-4.31
2018-02-24T19:33:18.677Z,-4.37
2018-02-24T19:35:46.189Z,-4.41
2018-02-24T19:38:13.876Z,-4.50
2018-02-24T19:40:41.371Z,-4.49
2018-02-24T19:43:08.857Z,-4.57
2018-02-24T19:45:36.416Z,-4.62
2018-02-24T19:48:03.915Z,-4.63
2018-02-24T19:50:31.453Z,-4.71
2018-02-24T19:52:58.909Z,-4.75
2018-02-24T19:55:26.399Z,-4.83
2018-02-24T19:57:53.979Z,-4.89
2018-02-24T20:00:21.473Z,-4.92
2018-02-24T20:02:49.020Z,-4.98
2018-02-24T20:05:16.497Z,-5.08
2018-02-24T20:07:44.070Z,-5.14
2018-02-24T20:10:11.561Z,-5.16
2018-02-24T20:12:39.180Z,-5.15
2018-02-24T20:15:06.905Z,-5.21
2018-02-24T20:17:34.389Z,-5.21
2018-02-24T20:20:01.854Z,-5.19
2018-02-24T20:22:29.337Z,-5.37
2018-02-24T20:24:56.886Z,-5.43
2018-02-24T20:27:24.382Z,-5.46
2018-02-24T20:29:51.857Z,-5.57
2018-02-24T20:32:19.349Z,-5.60
2018-02-24T20:34:46.847Z,-5.60
2018-02-24T20:37:14.561Z,-5.61
2018-02-24T20:39:42.049Z,-5.68
2018-02-24T20:42:09.586Z,-5.79
2018-02-24T20:44:37.162Z,-5.84
2018-02-24T20:47:04.629Z,-5.95
2018-02-24T20:49:32.122Z,-6.06
2018-02-24T20:51:59.634Z,-6.11
2018-02-24T20:54:27.129Z,-6.20
2018-02-24T20:56:54.610Z,-6.24
2018-02-24T20:59:22.108Z,-6.22
2018-02-24T21:01:49.612Z,-6.26
2018-02-24T21:04:17.140Z,-6.31
2018-02-24T21:06:44.682Z,-6.40
2018-02-24T21:09:12.169Z,-6.36
2018-02-24T21:11:39.738Z,-6.40
2018-02-24T21:14:07.310Z,-6.46
2018-02-24T21:16:34.778Z,-6.47
2018-02-24T21:19:02.259Z,-6.50
2018-02-24T21:21:29.827Z,-6.49
2018-02-24T21:23:57.301Z,-6.53
2018-02-24T21:26:24.783Z,-6.51
2018-02-24T21:28:52.347Z,-6.50
2018-02-24T21:31:19.838Z,-6.51
2018-02-24T21:33:47.321Z,-6.49
2018-02-24T21:36:14.798Z,-6.44
2018-02-24T21:38:42.269Z,-6.43
2018-02-24T21:41:09.751Z,-6.37
2018-02-24T21:43:37.214Z,-6.35
2018-02-24T21:46:04.686Z,-6.30
2018-02-24T21:48:32.193Z,-6.34
2018-02-24T21:50:59.684Z,-6.30
2018-02-24T21:53:27.161Z,-6.25
2018-02-24T21:55:54.655Z,-6.21
2018-02-24T21:58:22.148Z,-6.17
2018-02-24T22:00:49.611Z,-6.08
2018-02-24T22:03:17.162Z,-6.09
2018-02-24T22:05:44.650Z,-6.17
2018-02-24T22:08:12.123Z,-6.11
2018-02-24T22:10:39.623Z,-6.08
2018-02-24T22:13:07.113Z,-6.04
2018-02-24T22:15:34.600Z,-6.05
2018-02-24T22:18:02.057Z,-6.05
2018-02-24T22:20:29.515Z,-6.05
2018-02-24T22:22:56.988Z,-6.04
2018-02-24T22:25:24.490Z,-6.07
2018-02-24T22:27:52.017Z,-6.13
2018-02-24T22:30:19.519Z,-6.15
2018-02-24T22:32:47.021Z,-6.20
2018-02-24T22:35:14.554Z,-6.17
2018-02-24T22:37:42.140Z,-6.18
2018-02-24T22:40:09.598Z,-6.15
2018-02-24T22:42:37.097Z,-6.07
2018-02-24T22:45:04.571Z,-6.03
2018-02-24T22:47:37.613Z,-6.07
2018-02-24T22:50:05.082Z,-6.13
2018-02-24T22:52:32.537Z,-6.19
2018-02-24T22:55:00.025Z,-6.21
2018-02-24T22:57:27.528Z,-6.23
2018-02-24T22:59:55.008Z,-6.26
2018-02-24T23:02:22.524Z,-6.25
2018-02-24T23:04:49.982Z,-6.25
2018-02-24T23:07:17.511Z,-6.25
2018-02-24T23:09:45.098Z,-6.34
2018-02-24T23:12:12.567Z,-6.40
2018-02-24T23:14:40.022Z,-6.45
2018-02-24T23:17:07.733Z,-6.44
2018-02-24T23:19:35.253Z,-6.43
2018-02-24T23:22:02.795Z,-6.43
2018-02-24T23:24:30.273Z,-6.53
2018-02-24T23:26:57.745Z,-6.59
2018-02-24T23:29:25.302Z,-6.53
2018-02-24T23:31:52.795Z,-6.55
2018-02-24T23:34:20.350Z,-6.64
2018-02-24T23:36:47.819Z,-6.72
2018-02-24T23:39:15.300Z,-6.77
2018-02-24T23:41:42.765Z,-6.79
2018-02-24T23:44:10.252Z,-6.79
2018-02-24T23:46:37.741Z,-6.82
2018-02-24T23:49:05.225Z,-6.83
2018-02-24T23:51:32.693Z,-6.83
2018-02-24T23:54:00.160Z,-6.87
2018-02-24T23:56:27.698Z,-6.90
2018-02-24T23:58:55.202Z,-6.94
